Nearby METAR Reports

 

KBMG - Bloomington, Indiana, USA
Distance from station: SSE 11mi, 18km
Updated: Fri, 15-Dec-2017 5:53pm EST
Few Clouds
Few Clouds
 Wind from WSW
Wind: WSW 3 mph , 6 km/h
Temperature: 30°F , -1°C
Dew Point: 21°F , -6°C
Humidity: 69%
Barometer: 30.05 inHg , 1017.6 hPa
Clouds: Few Clouds
Visibility: 10 miles , 16 km
Cloud details: Few Clouds 3100 ft
2017/12/15 22:53 KBMG 152253Z 25003KT 10SM FEW031 M01/M06 A3005 RMK AO2 SLP184 T10061061
KHUF - Terre Haute, Indiana, USA
Distance from station: WNW 34mi, 54km
Updated: Fri, 15-Dec-2017 5:53pm EST
Overcast
Overcast
 Wind from SSW
Wind: SSW 6 mph , 9 km/h
Temperature: 34°F , 1°C
Wind Chill: 29°F , -2°C
Dew Point: 19°F , -7°C
Humidity: 56%
Barometer: 30.05 inHg , 1017.6 hPa
Clouds: Overcast
Visibility: 10 miles , 16 km
Cloud details: Overcast 6000 ft
2017/12/15 22:53 KHUF 152253Z 21005KT 10SM OVC060 01/M07 A3005 RMK AO2 SLP182 T00061072
 
KIND - Indianapolis, Indiana, USA
Distance from station: NE 36mi, 58km
Updated: Fri, 15-Dec-2017 5:54pm EST
Mostly cloudy
Mostly cloudy
 Wind from SW
Wind: SW 9 mph , 15 km/h
Temperature: 30°F , -1°C
Wind Chill: 22°F , -6°C
Dew Point: 18°F , -8°C
Humidity: 59%
Barometer: 30.03 inHg , 1016.9 hPa
Clouds: Mostly cloudy
Visibility: 10 miles , 16 km
Cloud details: Mostly cloudy 5500 ft
2017/12/15 22:54 KIND 152254Z 23008KT 10SM BKN055 M01/M08 A3003 RMK AO2 SLP177 T10111078
KBAK - Columbus/Balkala, Indiana, USA
Distance from station: E 43mi, 69km
Updated: Fri, 15-Dec-2017 5:45pm EST
Partly cloudy
Partly cloudy
 Wind from WSW
Wind: WSW 8 mph , 13 km/h
Temperature: 30°F , -1°C
Wind Chill: 22°F , -6°C
Dew Point: 19°F , -7°C
Humidity: 64%
Barometer: 30.07 inHg , 1018.3 hPa
Clouds: Partly cloudy
Visibility: 10 miles , 16 km
Cloud details: Partly cloudy 3200 ft
2017/12/15 22:45 KBAK 152245Z 25007KT 10SM SCT032 M01/M07 A3007
 
KEYE - Indianapolis, Indiana, USA
Distance from station: NNE 43mi, 69km
Updated: Fri, 15-Dec-2017 5:53pm EST
Mostly cloudy
Mostly cloudy
 Wind from WSW
Wind: WSW 5 mph , 7 km/h
Temperature: 30°F , -1°C
Wind Chill: 25°F , -4°C
Dew Point: 18°F , -8°C
Humidity: 59%
Barometer: 30.01 inHg , 1016.3 hPa
Clouds: Mostly cloudy
Visibility: 10 miles , 16 km
Cloud details: Mostly cloudy 5500 ft
2017/12/15 22:53 KEYE 152253Z AUTO 24004KT 10SM BKN055 M01/M08 A3001 RMK AO2 SLP172 T10061083
KDCY - Daviess County, Indiana, USA
Distance from station: SSW 47mi, 76km
Updated: Fri, 15-Dec-2017 5:55pm EST
Clear
Clear
 Wind from W
Wind: W 3 mph , 6 km/h
Temperature: 32°F , 0°C
Dew Point: 23°F , -5°C
Humidity: 69%
Barometer: 30.09 inHg , 1019 hPa
Clouds: Clear
Visibility: 10 miles , 16 km
2017/12/15 22:55 KDCY 152255Z AUTO 28003KT 10SM CLR 00/M05 A3009 RMK AO2 T00011048
 
KGEZ - Shelbyville, Indiana, USA
Distance from station: ENE 52mi, 83km
Updated: Fri, 15-Dec-2017 5:53pm EST
Mostly cloudy
Mostly cloudy
 Wind from SW
Wind: SW 6 mph , 9 km/h
Temperature: 30°F , -1°C
Wind Chill: 24°F , -4°C
Dew Point: 18°F , -8°C
Humidity: 59%
Barometer: 30.03 inHg , 1016.9 hPa
Clouds: Mostly cloudy
Visibility: 10 miles , 16 km
Cloud details: Mostly cloudy 3800 ft
2017/12/15 22:53 KGEZ 152253Z AUTO 23005KT 10SM BKN038 M01/M08 A3003 RMK AO2 SLP178 T10111078
KRSV - Robinson Muni, Illinois, USA
Distance from station: WSW 55mi, 88km
Updated: Fri, 15-Dec-2017 5:55pm EST
Clear
Clear
 Wind from WSW
Wind: WSW 6 mph , 9 km/h
Temperature: 30°F , -1°C
Wind Chill: 24°F , -4°C
Dew Point: 23°F , -5°C
Humidity: 75%
Barometer: 30.09 inHg , 1019 hPa
Clouds: Clear
Visibility: 10 miles , 16 km
2017/12/15 22:55 KRSV 152255Z AUTO 24005KT 10SM CLR M01/M05 A3009 RMK AO2 T10071048
 
KTYQ - Indianapolis Exc, Indiana, USA
Distance from station: NNE 56mi, 90km
Updated: Fri, 15-Dec-2017 5:55pm EST
Overcast
Overcast
 Wind from WSW
Wind: WSW 10 mph , 17 km/h
Temperature: 28°F , -2°C
Wind Chill: 19°F , -7°C
Dew Point: 18°F , -8°C
Humidity: 64%
Barometer: 30.01 inHg , 1016.3 hPa
Clouds: Overcast
Visibility: 10 miles , 16 km
Cloud details: Overcast 5000 ft
2017/12/15 22:55 KTYQ 152255Z AUTO 24009KT 10SM OVC050 M02/M08 A3001 RMK AO2 T10171083
KMQJ - Indianapolis Reg, Indiana, USA
Distance from station: NE 57mi, 92km
Updated: Fri, 15-Dec-2017 5:55pm EST
Clear
Clear
 Wind from WSW
Wind: WSW 10 mph , 17 km/h
Temperature: 27°F , -3°C
Wind Chill: 18°F , -8°C
Dew Point: 21°F , -6°C
Humidity: 80%
Barometer: 30.01 inHg , 1016.3 hPa
Clouds: Clear
Visibility: 10 miles , 16 km
2017/12/15 22:55 KMQJ 152255Z AUTO 24009KT 10SM CLR M03/M06 A3001 RMK AO1
 
KPRG - Paris, Illinois, USA
Distance from station: WNW 59mi, 94km
Updated: Fri, 15-Dec-2017 5:55pm EST
Overcast
Overcast
 Wind from SW
Wind: SW 7 mph , 11 km/h
Temperature: 34°F , 1°C
Wind Chill: 28°F , -2°C
Dew Point: 21°F , -6°C
Humidity: 60%
Barometer: 30.05 inHg , 1017.6 hPa
Clouds: Overcast
Visibility: 10 miles , 16 km
Cloud details: Overcast 6000 ft
2017/12/15 22:55 KPRG 152255Z AUTO 22006KT 10SM OVC060 01/M06 A3005 RMK AO2 T00051058
KLWV - Lawrenceville, Illinois, USA
Distance from station: SW 61mi, 98km
Updated: Fri, 15-Dec-2017 5:53pm EST
Clear
Clear
 Wind from WSW
Wind: WSW 5 mph , 7 km/h
Temperature: 32°F , 0°C
Wind Chill: 27°F , -3°C
Dew Point: 25°F , -4°C
Humidity: 75%
Barometer: 30.09 inHg , 1019 hPa
Clouds: Clear
Visibility: 10 miles , 16 km
2017/12/15 22:53 KLWV 152253Z AUTO 25004KT 10SM CLR 00/M04 A3009 RMK AO2 SLP192 T00001044
 
KAJG - Mount Carmel, Illinois, USA
Distance from station: SW 73mi, 117km
Updated: Fri, 15-Dec-2017 5:55pm EST
Clear
Clear
 Wind from WSW
Wind: WSW 6 mph , 9 km/h
Temperature: 34°F , 1°C
Wind Chill: 29°F , -2°C
Dew Point: 25°F , -4°C
Humidity: 70%
Barometer: 30.09 inHg , 1019 hPa
Clouds: Clear
Visibility: 10 miles , 16 km
2017/12/15 22:55 KAJG 152255Z AUTO 24005KT 10SM CLR 01/M04 A3009 RMK AO2 T00051044
KHNB - Huntingburg, Indiana, USA
Distance from station: S 74mi, 119km
Updated: Fri, 15-Dec-2017 5:56pm EST
Overcast
Overcast
 Wind from SW
Wind: SW 7 mph , 11 km/h
Temperature: 36°F , 2°C
Wind Chill: 30°F , -1°C
Dew Point: 25°F , -4°C
Humidity: 65%
Barometer: 30.10 inHg , 1019.3 hPa
Clouds: Overcast
Visibility: 10 miles , 16 km
Cloud details: Partly cloudy 3900 ft
Overcast 5500 ft
2017/12/15 22:56 KHNB 152256Z AUTO 22006KT 10SM SCT039 OVC055 02/M04 A3010 RMK AO2 SLP197 T00221039 FZRANO
 
KLAF - Lafayette, Indiana, USA
Distance from station: N 78mi, 126km
Updated: Fri, 15-Dec-2017 5:54pm EST
Overcast
Overcast
 Wind from WSW
Wind: WSW 8 mph , 13 km/h
Temperature: 32°F , 0°C
Wind Chill: 25°F , -4°C
Dew Point: 18°F , -8°C
Humidity: 55%
Barometer: 29.99 inHg , 1015.6 hPa
Clouds: Overcast
Visibility: 10 miles , 16 km
Cloud details: Few Clouds 4400 ft
Overcast 6000 ft
2017/12/15 22:54 KLAF 152254Z 24007KT 10SM FEW044 OVC060 00/M08 A2999 RMK AO2 SLP164 T00001078
KDNV - Danville, Illinois, USA
Distance from station: NW 79mi, 126km
Updated: Fri, 15-Dec-2017 5:55pm EST
Overcast
Overcast
 Wind from SW
Wind: SW 8 mph , 13 km/h
Temperature: 32°F , 0°C
Wind Chill: 25°F , -4°C
Dew Point: 19°F , -7°C
Humidity: 60%
Barometer: 29.98 inHg , 1015.2 hPa
Clouds: Overcast
Visibility: 10 miles , 16 km
Cloud details: Overcast 5500 ft
2017/12/15 22:55 KDNV 152255Z AUTO 23007KT 10SM OVC055 00/M07 A2998 RMK AO2 T00011073
 
KAID - Anderson Municip, Indiana, USA
Distance from station: NE 81mi, 130km
Updated: Fri, 15-Dec-2017 3:59pm EST
NOT Current
Mostly cloudy
Mostly cloudy
 Wind from W
Wind: W 17 mph , 28 km/h, Gust: 26 mph , 43 km/h
Temperature: 32°F , 0°C
Wind Chill: 21°F , -6°C
Dew Point: 18°F , -8°C
Humidity: 55%
Barometer: 29.97 inHg , 1014.9 hPa
Clouds: Mostly cloudy
Visibility: 10 miles , 16 km
Cloud details: Mostly cloudy 3300 ft
2017/12/15 20:59 KAID 152059Z 27015G23KT 10SM BKN033 M00/M08 A2997 RMK AO2 LAST
KMTO - Mattoon/Charlest, Illinois, USA
Distance from station: W 85mi, 136km
Updated: Fri, 15-Dec-2017 5:53pm EST
Overcast
Overcast
 Wind from SW
Wind: SW 6 mph , 9 km/h
Temperature: 36°F , 2°C
Wind Chill: 31°F , -1°C
Dew Point: 21°F , -6°C
Humidity: 56%
Barometer: 30.03 inHg , 1016.9 hPa
Clouds: Overcast
Visibility: 10 miles , 16 km
Cloud details: Overcast 6000 ft
2017/12/15 22:53 KMTO 152253Z AUTO 23005KT 10SM OVC060 02/M06 A3003 RMK AO2 SLP176 T00171056
 
KOLY - Olney-Noble, Illinois, USA
Distance from station: WSW 89mi, 144km
Updated: Fri, 15-Dec-2017 5:55pm EST
Clear
Clear
 Wind from WSW
Wind: WSW 3 mph , 6 km/h
Temperature: 36°F , 2°C
Dew Point: 23°F , -5°C
Humidity: 60%
Barometer: 30.08 inHg , 1018.6 hPa
Clouds: Clear
Visibility: 10 miles , 16 km
2017/12/15 22:55 KOLY 152255Z AUTO 24003KT 10SM CLR 02/M05 A3008 RMK AO2 T00171055
KOKK - Kokomo, Indiana, USA
Distance from station: NNE 92mi, 148km
Updated: Fri, 15-Dec-2017 5:56pm EST
Overcast
Overcast
 Wind from WSW
Wind: WSW 13 mph , 20 km/h
Temperature: 30°F , -1°C
Wind Chill: 20°F , -7°C
Dew Point: 19°F , -7°C
Humidity: 64%
Barometer: 29.98 inHg , 1015.2 hPa
Clouds: Overcast
Visibility: 10 miles , 16 km
Cloud details: Partly cloudy 4100 ft
Overcast 5500 ft
2017/12/15 22:56 KOKK 152256Z AUTO 24011KT 10SM UP SCT041 OVC055 M01/M07 A2998 RMK AO2 UPB46 SLP162 P0000 T10061072 FZRANO